createdAt,value
2022-12-29T00:00:16.003Z,96.80
2022-12-29T00:00:47.836Z,96.80
2022-12-29T00:01:19.675Z,96.90
2022-12-29T00:01:52.806Z,96.50
2022-12-29T00:02:24.577Z,96.70
2022-12-29T00:02:56.472Z,96.70
2022-12-29T00:03:28.494Z,96.80
2022-12-29T00:04:00.388Z,96.80
2022-12-29T00:04:32.214Z,96.70
2022-12-29T00:05:04.276Z,96.70
2022-12-29T00:05:36.056Z,96.70
2022-12-29T00:06:07.894Z,96.70
2022-12-29T00:06:39.924Z,96.70
2022-12-29T00:07:12.571Z,96.70
2022-12-29T00:07:44.303Z,96.90
2022-12-29T00:08:16.089Z,96.60
2022-12-29T00:08:47.862Z,96.80
2022-12-29T00:09:19.706Z,96.50
2022-12-29T00:09:51.500Z,96.50
2022-12-29T00:10:23.288Z,96.70
2022-12-29T00:10:55.334Z,96.70
2022-12-29T00:11:28.558Z,96.80
2022-12-29T00:12:01.396Z,96.60
2022-12-29T00:12:53.241Z,96.60
2022-12-29T00:13:43.677Z,96.60
2022-12-29T00:14:34.330Z,96.30
2022-12-29T00:15:26.113Z,96.60
2022-12-29T00:15:57.918Z,96.80
2022-12-29T00:16:30.927Z,96.60
2022-12-29T00:17:03.119Z,96.70
2022-12-29T00:17:34.883Z,96.50
2022-12-29T00:18:08.143Z,96.80
2022-12-29T00:18:39.924Z,96.50
2022-12-29T00:19:31.708Z,96.50
2022-12-29T00:20:22.688Z,96.60
2022-12-29T00:21:15.211Z,96.50
2022-12-29T00:22:05.827Z,96.50
2022-12-29T00:22:56.278Z,96.60
2022-12-29T00:23:46.879Z,96.50
2022-12-29T00:24:27.735Z,96.40
2022-12-29T00:25:02.921Z,96.40
2022-12-29T00:25:55.753Z,96.40
2022-12-29T00:26:46.354Z,96.50
2022-12-29T00:27:36.967Z,96.40
2022-12-29T00:28:30.154Z,96.80
2022-12-29T00:29:21.210Z,96.40
2022-12-29T00:30:12.258Z,96.40
2022-12-29T00:31:02.983Z,96.50
2022-12-29T00:31:53.427Z,96.50
2022-12-29T00:32:44.197Z,96.40
2022-12-29T00:33:36.993Z,96.40
2022-12-29T00:34:30.402Z,96.30
2022-12-29T00:35:11.537Z,96.30
2022-12-29T00:35:51.397Z,96.40
2022-12-29T00:36:35.413Z,96.30
2022-12-29T00:37:07.422Z,96.40
2022-12-29T00:38:05.755Z,96.40
2022-12-29T00:38:59.488Z,96.30
2022-12-29T00:39:50.213Z,96.40
2022-12-29T00:40:40.843Z,96.30
2022-12-29T00:41:31.436Z,96.40
2022-12-29T00:42:26.793Z,96.30
2022-12-29T00:43:17.293Z,96.30
2022-12-29T00:44:08.090Z,96.30
2022-12-29T00:44:39.918Z,96.30
2022-12-29T00:45:11.708Z,96.30
2022-12-29T00:45:43.511Z,96.30
2022-12-29T00:46:19.607Z,96.30
2022-12-29T00:46:52.151Z,96.30
2022-12-29T00:47:24.579Z,96.30
2022-12-29T00:47:56.404Z,96.30
2022-12-29T00:48:46.620Z,96.30
2022-12-29T00:49:34.046Z,96.30
2022-12-29T00:50:06.560Z,96.30
2022-12-29T00:50:38.901Z,96.30
2022-12-29T00:51:10.928Z,96.30
2022-12-29T00:51:42.989Z,96.50
2022-12-29T00:52:15.087Z,96.40
2022-12-29T00:52:46.827Z,96.40
2022-12-29T00:53:18.613Z,96.30
2022-12-29T00:53:50.554Z,96.40
2022-12-29T00:54:22.937Z,96.30
2022-12-29T00:54:54.763Z,96.30
2022-12-29T00:55:26.620Z,96.30
2022-12-29T00:55:58.458Z,96.40
2022-12-29T00:56:30.205Z,96.30
2022-12-29T00:57:02.881Z,96.30
2022-12-29T00:57:34.701Z,96.20
2022-12-29T00:58:06.556Z,96.30
2022-12-29T00:58:39.162Z,96.30
2022-12-29T00:59:12.565Z,96.30
2022-12-29T00:59:44.655Z,96.30
2022-12-29T01:00:16.668Z,96.20
2022-12-29T01:00:48.829Z,96.30
2022-12-29T01:01:20.825Z,96.30
2022-12-29T01:01:55.251Z,96.30
2022-12-29T01:02:27.236Z,96.30
2022-12-29T01:02:59.400Z,96.50
2022-12-29T01:03:31.448Z,96.20
2022-12-29T01:04:04.649Z,95.80
2022-12-29T01:04:36.719Z,96.20
2022-12-29T01:05:08.894Z,96.20
2022-12-29T01:05:40.713Z,96.20
2022-12-29T01:06:13.397Z,96.40
2022-12-29T01:06:46.053Z,96.20
2022-12-29T01:07:17.849Z,96.20
2022-12-29T01:07:50.371Z,96.20
2022-12-29T01:08:22.148Z,96.20
2022-12-29T01:09:12.863Z,96.20
2022-12-29T01:10:03.559Z,96.20
2022-12-29T01:10:35.326Z,96.20
2022-12-29T01:11:10.505Z,96.20
2022-12-29T01:11:42.360Z,96.20
2022-12-29T01:12:14.371Z,96.20
2022-12-29T01:12:48.316Z,96.20
2022-12-29T01:13:20.106Z,96.20
2022-12-29T01:13:51.850Z,95.50
2022-12-29T01:14:24.180Z,96.20
2022-12-29T01:14:55.909Z,96.20
2022-12-29T01:15:27.685Z,96.20
2022-12-29T01:15:59.643Z,96.20
2022-12-29T01:16:31.715Z,96.20
2022-12-29T01:17:04.359Z,96.10
2022-12-29T01:17:36.713Z,96.20
2022-12-29T01:18:08.499Z,96.20
2022-12-29T01:18:40.303Z,96.20
2022-12-29T01:19:13.017Z,96.20
2022-12-29T01:19:44.807Z,96.20
2022-12-29T01:20:16.769Z,96.20
2022-12-29T01:20:48.560Z,96.20
2022-12-29T01:21:20.588Z,96.30
2022-12-29T01:21:52.560Z,96.30
2022-12-29T01:22:24.761Z,96.70
2022-12-29T01:22:56.613Z,96.10
2022-12-29T01:23:28.775Z,96.20
2022-12-29T01:24:00.541Z,96.30
2022-12-29T01:24:32.357Z,96.20
2022-12-29T01:25:05.393Z,96.20
2022-12-29T01:25:37.157Z,96.10
2022-12-29T01:26:13.550Z,96.20
2022-12-29T01:26:46.705Z,96.30
2022-12-29T01:27:18.442Z,96.10
2022-12-29T01:27:50.243Z,96.10
2022-12-29T01:28:25.958Z,96.40
2022-12-29T01:28:58.232Z,96.10
2022-12-29T01:29:29.969Z,96.20
2022-12-29T01:30:01.840Z,96.20
2022-12-29T01:30:34.009Z,96.20
2022-12-29T01:31:05.807Z,96.20
2022-12-29T01:31:37.990Z,96.10
2022-12-29T01:32:09.847Z,96.20
2022-12-29T01:32:41.600Z,96.30
2022-12-29T01:33:13.370Z,96.10
2022-12-29T01:33:45.332Z,96.10
2022-12-29T01:34:17.787Z,96.10
2022-12-29T01:34:50.214Z,96.10
2022-12-29T01:35:22.248Z,96.30
2022-12-29T01:35:54.111Z,96.10
2022-12-29T01:36:26.154Z,96.10
2022-12-29T01:36:57.953Z,96.10
2022-12-29T01:37:30.069Z,96.10
2022-12-29T01:38:02.336Z,96.20
2022-12-29T01:38:35.499Z,96.10
2022-12-29T01:39:07.336Z,96.10
2022-12-29T01:39:39.316Z,96.10
2022-12-29T01:40:11.715Z,96.20
2022-12-29T01:40:47.614Z,96.10
2022-12-29T01:41:19.464Z,96.10
2022-12-29T01:41:51.493Z,95.90
2022-12-29T01:42:26.959Z,96.30
2022-12-29T01:42:58.793Z,96.10
2022-12-29T01:43:40.339Z,96.10
2022-12-29T01:44:45.873Z,96.10
2022-12-29T01:45:19.230Z,96.10
2022-12-29T01:45:55.557Z,96.10
2022-12-29T01:46:32.992Z,96.20
2022-12-29T01:47:04.915Z,96.30
2022-12-29T01:47:44.728Z,96.30
2022-12-29T01:48:18.962Z,96.10
2022-12-29T01:49:03.508Z,96.00
2022-12-29T01:49:36.266Z,96.00
2022-12-29T01:50:21.188Z,96.10
2022-12-29T01:50:54.712Z,96.00
2022-12-29T01:51:29.855Z,96.10
2022-12-29T01:52:07.757Z,96.10
2022-12-29T01:52:48.911Z,96.00
2022-12-29T01:53:29.238Z,96.10
2022-12-29T01:54:05.843Z,96.10
2022-12-29T01:54:47.418Z,96.10
2022-12-29T01:55:21.073Z,96.00
2022-12-29T01:55:57.276Z,96.10
2022-12-29T01:56:29.614Z,96.00
2022-12-29T01:57:07.391Z,96.00
2022-12-29T01:57:43.571Z,96.00
2022-12-29T01:58:18.845Z,96.00
2022-12-29T01:58:58.875Z,96.00
2022-12-29T01:59:37.868Z,96.00
2022-12-29T02:00:13.330Z,96.20
2022-12-29T02:00:47.107Z,96.00
2022-12-29T02:01:22.179Z,96.10
2022-12-29T02:01:55.088Z,96.10
2022-12-29T02:02:31.263Z,96.00
2022-12-29T02:03:08.853Z,96.10
2022-12-29T02:03:41.460Z,96.00
2022-12-29T02:04:14.342Z,96.00
2022-12-29T02:04:46.622Z,96.10
2022-12-29T02:05:49.743Z,96.10
2022-12-29T02:06:33.958Z,96.00
2022-12-29T02:07:14.597Z,96.00
2022-12-29T02:07:48.733Z,96.00
2022-12-29T02:08:23.299Z,96.00
2022-12-29T02:08:57.527Z,96.00
2022-12-29T02:09:29.720Z,96.20
2022-12-29T02:10:03.170Z,96.00
2022-12-29T02:10:37.067Z,96.00
2022-12-29T02:11:08.956Z,96.10
2022-12-29T02:11:41.327Z,96.10
2022-12-29T02:12:13.995Z,96.10
2022-12-29T02:12:47.612Z,96.00
2022-12-29T02:13:19.454Z,96.10
2022-12-29T02:13:51.263Z,96.00
2022-12-29T02:14:23.056Z,96.00
2022-12-29T02:15:00.364Z,96.00
2022-12-29T02:16:03.683Z,96.00
2022-12-29T02:16:49.858Z,95.90
2022-12-29T02:17:40.712Z,96.00
2022-12-29T02:18:34.117Z,96.00
2022-12-29T02:19:38.235Z,96.00
2022-12-29T02:20:40.695Z,96.00
2022-12-29T02:22:02.616Z,96.00
2022-12-29T02:22:56.268Z,96.00
2022-12-29T02:23:36.447Z,96.00
2022-12-29T02:24:26.877Z,95.90
2022-12-29T02:25:33.910Z,96.00
2022-12-29T02:26:20.862Z,96.00
2022-12-29T02:27:20.155Z,96.00
2022-12-29T02:28:11.133Z,96.00
2022-12-29T02:28:42.862Z,96.00
2022-12-29T02:29:36.128Z,96.00
2022-12-29T02:30:46.015Z,96.00
2022-12-29T02:31:49.670Z,96.00
2022-12-29T02:32:32.930Z,96.00
2022-12-29T02:33:11.119Z,96.00
2022-12-29T02:33:59.606Z,96.00
2022-12-29T02:34:51.618Z,96.10
2022-12-29T02:35:38.209Z,96.00
2022-12-29T02:36:36.255Z,96.00
2022-12-29T02:37:27.551Z,95.50
2022-12-29T02:38:05.457Z,95.90
2022-12-29T02:38:58.571Z,96.00
2022-12-29T02:39:51.665Z,96.00
2022-12-29T02:40:39.596Z,96.00
2022-12-29T02:41:25.984Z,96.00
2022-12-29T02:42:25.333Z,95.90
2022-12-29T02:43:11.130Z,96.10
2022-12-29T02:43:57.459Z,96.20
2022-12-29T02:44:39.157Z,96.00
2022-12-29T02:45:16.599Z,96.00
2022-12-29T02:45:59.098Z,96.00
2022-12-29T02:46:55.214Z,96.00
2022-12-29T02:47:42.429Z,96.00
2022-12-29T02:48:33.688Z,96.00
2022-12-29T02:49:11.968Z,95.90
2022-12-29T02:50:09.729Z,95.30
2022-12-29T02:50:58.613Z,96.00
2022-12-29T02:52:02.161Z,96.00
2022-12-29T02:53:01.354Z,96.00
2022-12-29T02:53:55.301Z,96.00
2022-12-29T02:54:42.942Z,96.00
2022-12-29T02:55:15.559Z,95.90
2022-12-29T02:55:50.641Z,95.90
2022-12-29T02:56:22.775Z,96.00
2022-12-29T02:56:54.728Z,95.90
2022-12-29T02:57:26.564Z,96.00
2022-12-29T02:58:21.654Z,95.90
2022-12-29T02:58:54.593Z,95.90
2022-12-29T02:59:26.623Z,96.00
2022-12-29T03:00:05.957Z,95.90
2022-12-29T03:00:56.610Z,96.00
2022-12-29T03:02:15.565Z,96.00
2022-12-29T03:02:53.004Z,95.90
2022-12-29T03:03:34.929Z,95.90
2022-12-29T03:04:28.860Z,95.90
2022-12-29T03:05:31.125Z,95.90
2022-12-29T03:06:05.901Z,95.90
2022-12-29T03:06:52.736Z,95.90
2022-12-29T03:07:55.087Z,95.90
2022-12-29T03:08:59.972Z,95.90
2022-12-29T03:09:52.816Z,95.90
2022-12-29T03:10:40.451Z,95.90
2022-12-29T03:11:33.361Z,95.90
2022-12-29T03:12:11.364Z,95.90
2022-12-29T03:13:18.625Z,95.90
2022-12-29T03:14:16.295Z,95.90
2022-12-29T03:15:08.874Z,95.90
2022-12-29T03:16:04.206Z,95.90
2022-12-29T03:16:56.407Z,95.90
2022-12-29T03:17:44.166Z,95.90
2022-12-29T03:18:36.134Z,95.90
2022-12-29T03:19:15.194Z,95.90
2022-12-29T03:19:52.433Z,96.20
2022-12-29T03:20:37.441Z,95.90
2022-12-29T03:21:52.311Z,95.90
2022-12-29T03:22:39.278Z,96.00
2022-12-29T03:23:15.008Z,96.00
2022-12-29T03:23:50.961Z,96.00
2022-12-29T03:24:29.109Z,95.90
2022-12-29T03:25:14.715Z,95.90
2022-12-29T03:25:53.775Z,95.90
2022-12-29T03:26:26.792Z,95.90
2022-12-29T03:27:03.613Z,95.90
2022-12-29T03:28:06.818Z,95.90
2022-12-29T03:28:55.082Z,95.40
2022-12-29T03:29:36.324Z,95.90
2022-12-29T03:30:10.018Z,96.20
2022-12-29T03:30:44.497Z,95.90
2022-12-29T03:31:20.250Z,95.90
2022-12-29T03:31:56.736Z,96.00
2022-12-29T03:32:35.842Z,95.90
2022-12-29T03:33:13.849Z,95.90
2022-12-29T03:33:48.163Z,95.90
2022-12-29T03:34:22.810Z,95.90
2022-12-29T03:34:56.344Z,96.00
2022-12-29T03:35:33.049Z,95.90
2022-12-29T03:36:10.331Z,96.00
2022-12-29T03:36:59.657Z,95.90
2022-12-29T03:37:41.517Z,95.90
2022-12-29T03:38:19.831Z,96.00
2022-12-29T03:39:03.506Z,95.80
2022-12-29T03:39:35.960Z,95.80
2022-12-29T03:40:08.570Z,95.80
2022-12-29T03:40:45.905Z,95.80
2022-12-29T03:41:23.724Z,96.10
2022-12-29T03:42:02.350Z,95.80
2022-12-29T03:42:37.943Z,95.80
2022-12-29T03:43:10.707Z,95.80
2022-12-29T03:43:42.731Z,95.90
2022-12-29T03:44:15.048Z,95.90
2022-12-29T03:44:48.010Z,95.80
2022-12-29T03:45:21.671Z,95.80
2022-12-29T03:45:53.656Z,95.80
2022-12-29T03:46:25.545Z,95.80
2022-12-29T03:46:57.395Z,95.80
2022-12-29T03:47:29.278Z,95.90
2022-12-29T03:48:01.178Z,95.80
2022-12-29T03:48:33.935Z,96.10
2022-12-29T03:49:06.630Z,95.80
2022-12-29T03:49:38.839Z,95.90
2022-12-29T03:50:13.692Z,95.90
2022-12-29T03:50:47.811Z,95.90
2022-12-29T03:51:20.549Z,96.10
2022-12-29T03:51:52.994Z,95.90
2022-12-29T03:52:24.969Z,95.90
2022-12-29T03:52:58.384Z,95.90
2022-12-29T03:53:32.561Z,95.80
2022-12-29T03:54:05.935Z,95.90
2022-12-29T03:54:38.881Z,95.90
2022-12-29T03:55:11.262Z,95.90
2022-12-29T03:55:44.983Z,95.90
2022-12-29T03:56:17.190Z,95.90
2022-12-29T03:56:50.518Z,95.90
2022-12-29T03:57:28.168Z,95.30
2022-12-29T03:58:05.081Z,95.90
2022-12-29T03:58:56.733Z,95.90
2022-12-29T03:59:43.118Z,96.10
2022-12-29T04:00:15.677Z,95.90
2022-12-29T04:00:47.410Z,95.90
2022-12-29T04:01:19.359Z,95.90
2022-12-29T04:01:51.654Z,95.90
2022-12-29T04:02:24.959Z,96.20
2022-12-29T04:02:58.190Z,95.90
2022-12-29T04:03:30.119Z,95.90
2022-12-29T04:04:01.968Z,95.90
2022-12-29T04:04:33.867Z,95.90
2022-12-29T04:05:06.433Z,95.90
2022-12-29T04:05:38.238Z,96.10
2022-12-29T04:06:10.035Z,96.10
2022-12-29T04:06:51.938Z,96.70
2022-12-29T04:07:24.486Z,96.00
2022-12-29T04:07:58.796Z,95.90
2022-12-29T04:08:30.692Z,95.90
2022-12-29T04:09:03.888Z,95.50
2022-12-29T04:09:39.361Z,95.90
2022-12-29T04:10:12.694Z,95.90
2022-12-29T04:10:44.675Z,96.10
2022-12-29T04:11:18.323Z,95.90
2022-12-29T04:11:50.561Z,95.90
2022-12-29T04:12:23.076Z,96.10
2022-12-29T04:12:54.971Z,96.20
2022-12-29T04:13:27.744Z,95.90
2022-12-29T04:13:59.570Z,95.90
2022-12-29T04:14:32.523Z,95.90
2022-12-29T04:15:05.384Z,96.10
2022-12-29T04:15:38.507Z,95.90
2022-12-29T04:16:10.672Z,95.90
2022-12-29T04:16:42.507Z,95.90
2022-12-29T04:17:14.423Z,96.00
2022-12-29T04:17:47.506Z,96.00
2022-12-29T04:18:19.308Z,96.00
2022-12-29T04:18:51.714Z,96.10
2022-12-29T04:19:23.757Z,96.00
2022-12-29T04:20:15.706Z,96.00
2022-12-29T04:21:00.552Z,96.00
2022-12-29T04:21:33.268Z,96.00
2022-12-29T04:22:05.156Z,96.00
2022-12-29T04:22:40.086Z,96.10
2022-12-29T04:23:11.878Z,96.00
2022-12-29T04:23:43.731Z,96.00
2022-12-29T04:24:16.195Z,96.00
2022-12-29T04:24:50.544Z,96.10
2022-12-29T04:25:22.352Z,96.30
2022-12-29T04:25:54.389Z,96.10
2022-12-29T04:26:26.552Z,96.10
2022-12-29T04:27:30.463Z,96.00
2022-12-29T04:28:24.313Z,95.70
2022-12-29T04:29:05.339Z,96.00
2022-12-29T04:30:00.337Z,96.10
2022-12-29T04:30:54.079Z,96.00
2022-12-29T04:31:29.357Z,96.10
2022-12-29T04:32:01.207Z,96.10
2022-12-29T04:32:35.090Z,96.00
2022-12-29T04:33:07.528Z,96.10
2022-12-29T04:33:39.539Z,96.20
2022-12-29T04:34:11.797Z,96.10
2022-12-29T04:34:44.016Z,96.10
2022-12-29T04:35:15.913Z,96.00
2022-12-29T04:35:48.582Z,96.00
2022-12-29T04:36:23.246Z,96.00
2022-12-29T04:36:59.667Z,96.00
2022-12-29T04:37:31.460Z,96.00
2022-12-29T04:38:03.719Z,96.10
2022-12-29T04:38:35.935Z,96.00
2022-12-29T04:39:09.791Z,96.00
2022-12-29T04:39:43.574Z,96.10
2022-12-29T04:40:15.461Z,96.10
2022-12-29T04:40:48.064Z,96.00
2022-12-29T04:41:21.363Z,96.00
2022-12-29T04:41:54.053Z,96.10
2022-12-29T04:42:27.024Z,96.30
2022-12-29T04:42:59.176Z,96.20
2022-12-29T04:43:31.206Z,96.30
2022-12-29T04:44:21.788Z,96.20
2022-12-29T04:45:16.832Z,96.30
2022-12-29T04:45:57.781Z,96.20
2022-12-29T04:46:34.333Z,96.20
2022-12-29T04:47:24.365Z,96.20
2022-12-29T04:48:11.507Z,96.50
2022-12-29T04:49:05.552Z,96.40
2022-12-29T04:49:55.900Z,96.30
2022-12-29T04:50:50.324Z,96.30
2022-12-29T04:51:24.214Z,96.30
2022-12-29T04:51:56.099Z,96.30
2022-12-29T04:52:28.723Z,96.40
2022-12-29T04:53:01.087Z,96.40
2022-12-29T04:53:32.884Z,96.40
2022-12-29T04:54:05.356Z,96.30
2022-12-29T04:54:37.611Z,96.30
2022-12-29T04:55:18.026Z,96.30
2022-12-29T04:55:52.748Z,96.30
2022-12-29T04:56:24.853Z,96.30
2022-12-29T04:56:56.740Z,96.30
2022-12-29T04:57:29.907Z,96.30
2022-12-29T04:58:04.636Z,96.50
2022-12-29T04:58:38.537Z,96.50
2022-12-29T04:59:10.717Z,96.40
2022-12-29T04:59:42.523Z,96.40
2022-12-29T05:00:14.958Z,96.40
2022-12-29T05:00:47.009Z,96.40
2022-12-29T05:01:19.574Z,96.40
2022-12-29T05:01:51.530Z,96.40
2022-12-29T05:02:23.888Z,96.50
2022-12-29T05:02:56.605Z,96.50
2022-12-29T05:03:28.838Z,96.40
2022-12-29T05:04:00.682Z,96.50
2022-12-29T05:04:32.953Z,96.80
2022-12-29T05:05:06.391Z,96.50
2022-12-29T05:05:40.396Z,96.50
2022-12-29T05:06:12.247Z,96.50
2022-12-29T05:06:44.102Z,96.60
2022-12-29T05:07:16.328Z,96.50
2022-12-29T05:07:49.770Z,96.60
2022-12-29T05:08:27.773Z,96.60
2022-12-29T05:09:00.009Z,96.50
2022-12-29T05:09:31.815Z,96.80
2022-12-29T05:10:05.986Z,96.50
2022-12-29T05:10:37.928Z,96.50
2022-12-29T05:11:15.872Z,96.60
2022-12-29T05:11:49.002Z,96.60
2022-12-29T05:12:21.009Z,96.70
2022-12-29T05:13:04.497Z,96.60
2022-12-29T05:13:36.335Z,96.50
2022-12-29T05:14:08.585Z,96.90
2022-12-29T05:14:41.105Z,96.60
2022-12-29T05:15:14.112Z,97.00
2022-12-29T05:15:54.865Z,96.60
2022-12-29T05:16:28.662Z,96.70
2022-12-29T05:17:00.491Z,96.60
2022-12-29T05:17:32.555Z,96.60
2022-12-29T05:18:04.380Z,96.60
2022-12-29T05:18:36.138Z,96.60
2022-12-29T05:19:08.883Z,96.30
2022-12-29T05:19:40.772Z,96.70
2022-12-29T05:20:12.753Z,96.80
2022-12-29T05:20:45.174Z,96.60
2022-12-29T05:21:17.030Z,96.60
2022-12-29T05:21:49.935Z,96.60
2022-12-29T05:22:22.212Z,96.60
2022-12-29T05:22:54.596Z,96.60
2022-12-29T05:23:26.364Z,96.60
2022-12-29T05:24:02.615Z,96.60
2022-12-29T05:24:34.743Z,96.60
2022-12-29T05:25:07.235Z,97.40
2022-12-29T05:25:49.769Z,96.90
2022-12-29T05:26:24.416Z,96.60
2022-12-29T05:27:02.319Z,96.70
2022-12-29T05:27:52.932Z,96.80
2022-12-29T05:28:44.935Z,96.70
2022-12-29T05:29:19.991Z,96.70
2022-12-29T05:29:52.126Z,96.70
2022-12-29T05:30:24.216Z,96.70
2022-12-29T05:30:56.102Z,96.90
2022-12-29T05:31:28.573Z,96.80
2022-12-29T05:32:00.585Z,96.70
2022-12-29T05:32:32.924Z,96.70
2022-12-29T05:33:07.380Z,96.70
2022-12-29T05:33:40.071Z,96.70
2022-12-29T05:34:12.850Z,96.70
2022-12-29T05:34:45.574Z,96.70
2022-12-29T05:35:17.517Z,96.80
2022-12-29T05:35:49.413Z,96.70
2022-12-29T05:36:21.669Z,96.80
2022-12-29T05:36:58.067Z,96.70
2022-12-29T05:37:29.879Z,96.70
2022-12-29T05:38:01.776Z,96.70
2022-12-29T05:38:34.033Z,96.70
2022-12-29T05:39:08.539Z,96.80
2022-12-29T05:39:41.053Z,96.70
2022-12-29T05:40:14.074Z,96.70
2022-12-29T05:40:47.187Z,96.70
2022-12-29T05:41:45.291Z,96.70
2022-12-29T05:42:52.228Z,96.70
2022-12-29T05:43:42.820Z,96.70
2022-12-29T05:44:35.230Z,96.80
2022-12-29T05:45:19.015Z,96.70
2022-12-29T05:46:07.797Z,96.80
2022-12-29T05:46:52.367Z,96.70
2022-12-29T05:47:31.695Z,96.70
2022-12-29T05:48:06.482Z,96.70
2022-12-29T05:48:58.617Z,96.70
2022-12-29T05:49:42.752Z,96.70
2022-12-29T05:50:24.970Z,96.70
2022-12-29T05:51:17.282Z,96.70
2022-12-29T05:51:54.423Z,96.60
2022-12-29T05:52:27.452Z,96.70
2022-12-29T05:52:59.853Z,96.60
2022-12-29T05:53:31.685Z,96.60
2022-12-29T05:54:03.919Z,96.60
2022-12-29T05:54:35.980Z,96.60
2022-12-29T05:55:12.651Z,96.60
2022-12-29T05:55:49.080Z,96.60
2022-12-29T05:56:21.888Z,96.70
2022-12-29T05:56:59.975Z,96.70
2022-12-29T05:57:32.769Z,96.60
2022-12-29T05:58:14.296Z,96.60
2022-12-29T05:58:46.628Z,96.70
2022-12-29T05:59:18.536Z,96.60
2022-12-29T05:59:50.366Z,97.00
2022-12-29T06:00:22.298Z,96.60
2022-12-29T06:00:54.496Z,96.60
2022-12-29T06:01:26.459Z,96.70
2022-12-29T06:01:59.537Z,96.60
2022-12-29T06:02:31.704Z,96.70
2022-12-29T06:03:04.854Z,96.70
2022-12-29T06:03:37.004Z,96.60
2022-12-29T06:04:08.924Z,96.60
2022-12-29T06:04:40.712Z,96.80
2022-12-29T06:05:12.900Z,96.50
2022-12-29T06:05:48.421Z,96.60
2022-12-29T06:06:22.024Z,96.50
2022-12-29T06:06:53.802Z,96.50
2022-12-29T06:07:43.125Z,96.60
2022-12-29T06:08:15.167Z,96.80
2022-12-29T06:08:46.916Z,96.50
2022-12-29T06:09:19.346Z,96.50
2022-12-29T06:09:51.202Z,96.50
2022-12-29T06:10:23.144Z,96.50
2022-12-29T06:11:00.537Z,96.50
2022-12-29T06:11:32.967Z,96.50
2022-12-29T06:12:06.102Z,96.50
2022-12-29T06:12:38.272Z,96.70
2022-12-29T06:13:11.656Z,96.60
2022-12-29T06:13:46.715Z,96.50
2022-12-29T06:14:18.595Z,96.50
2022-12-29T06:14:50.435Z,96.50
2022-12-29T06:15:22.289Z,96.50
2022-12-29T06:15:55.942Z,96.50
2022-12-29T06:16:28.208Z,96.70
2022-12-29T06:17:03.594Z,96.90
2022-12-29T06:17:35.576Z,96.50
2022-12-29T06:18:07.463Z,96.50
2022-12-29T06:18:39.772Z,96.70
2022-12-29T06:19:13.378Z,96.50
2022-12-29T06:19:46.113Z,96.70
2022-12-29T06:20:18.201Z,96.40
2022-12-29T06:20:50.257Z,96.40
2022-12-29T06:21:23.951Z,96.50
2022-12-29T06:21:56.003Z,96.50
2022-12-29T06:22:27.822Z,96.70
2022-12-29T06:22:59.630Z,96.60
2022-12-29T06:23:31.678Z,96.50
2022-12-29T06:24:05.363Z,96.40
2022-12-29T06:24:37.172Z,96.40
2022-12-29T06:25:09.550Z,96.90
2022-12-29T06:25:41.904Z,96.50
2022-12-29T06:26:13.796Z,96.50
2022-12-29T06:26:45.819Z,96.50
2022-12-29T06:27:17.688Z,96.40
2022-12-29T06:27:49.624Z,96.50
2022-12-29T06:28:21.590Z,96.40
2022-12-29T06:28:53.357Z,96.40
2022-12-29T06:29:25.238Z,96.60
2022-12-29T06:29:57.090Z,96.40
2022-12-29T06:30:28.946Z,96.40
2022-12-29T06:31:03.036Z,96.40
2022-12-29T06:31:35.002Z,96.40
2022-12-29T06:32:07.912Z,96.40
2022-12-29T06:32:41.042Z,96.40
2022-12-29T06:33:16.761Z,96.40
2022-12-29T06:33:50.215Z,96.40
2022-12-29T06:34:22.574Z,96.40
2022-12-29T06:34:54.310Z,96.40
2022-12-29T06:35:26.777Z,96.40
2022-12-29T06:35:58.693Z,96.70
2022-12-29T06:36:30.484Z,96.40
2022-12-29T06:37:02.671Z,96.40
2022-12-29T06:37:34.502Z,96.40
2022-12-29T06:38:06.835Z,96.40
2022-12-29T06:38:38.956Z,96.40
2022-12-29T06:39:12.023Z,96.60
2022-12-29T06:39:44.496Z,96.40
2022-12-29T06:40:18.165Z,96.40
2022-12-29T06:41:08.241Z,96.40
2022-12-29T06:41:40.029Z,96.40
2022-12-29T06:42:37.958Z,96.40
2022-12-29T06:43:18.300Z,96.40
2022-12-29T06:44:03.275Z,96.40
2022-12-29T06:44:53.573Z,96.30
2022-12-29T06:45:25.332Z,96.40
2022-12-29T06:45:57.332Z,96.40
2022-12-29T06:46:29.524Z,96.70
2022-12-29T06:47:01.410Z,96.60
2022-12-29T06:47:33.189Z,96.40
2022-12-29T06:48:05.712Z,96.30
2022-12-29T06:48:37.489Z,96.40
2022-12-29T06:49:09.295Z,96.60
2022-12-29T06:49:41.142Z,96.40
2022-12-29T06:50:12.956Z,96.60
2022-12-29T06:50:44.764Z,96.50
2022-12-29T06:51:16.548Z,96.40
2022-12-29T06:51:49.230Z,96.40
2022-12-29T06:52:21.044Z,96.50
2022-12-29T06:52:52.773Z,96.40
2022-12-29T06:53:24.551Z,96.30
2022-12-29T06:53:56.343Z,96.30
2022-12-29T06:54:28.464Z,96.40
2022-12-29T06:55:00.340Z,96.40
2022-12-29T06:55:32.356Z,96.50
2022-12-29T06:56:04.439Z,96.40
2022-12-29T06:56:36.281Z,96.40
2022-12-29T06:57:08.189Z,96.40
2022-12-29T06:57:39.996Z,96.50
2022-12-29T06:58:11.804Z,96.00
2022-12-29T06:58:43.666Z,96.60
2022-12-29T06:59:15.477Z,96.50
2022-12-29T06:59:47.256Z,96.40
2022-12-29T07:00:22.699Z,96.40
2022-12-29T07:00:55.156Z,96.40
2022-12-29T07:01:27.666Z,96.40
2022-12-29T07:01:59.662Z,96.50
2022-12-29T07:02:31.983Z,96.40
2022-12-29T07:03:04.038Z,96.60
2022-12-29T07:03:36.099Z,96.40
2022-12-29T07:04:07.962Z,96.40
2022-12-29T07:04:39.740Z,96.40
2022-12-29T07:05:12.454Z,96.60
2022-12-29T07:05:44.228Z,96.30
2022-12-29T07:06:16.030Z,96.40
2022-12-29T07:06:47.900Z,96.40
2022-12-29T07:07:20.810Z,96.40
2022-12-29T07:07:53.203Z,96.40
2022-12-29T07:08:25.417Z,96.40
2022-12-29T07:08:58.412Z,96.10
2022-12-29T07:09:30.227Z,96.30
2022-12-29T07:10:02.029Z,96.10
2022-12-29T07:10:33.800Z,96.30
2022-12-29T07:11:06.806Z,96.50
2022-12-29T07:11:38.647Z,96.30
2022-12-29T07:12:10.469Z,96.10
2022-12-29T07:12:42.278Z,96.10
2022-12-29T07:13:14.101Z,96.60
2022-12-29T07:13:45.891Z,96.30
2022-12-29T07:14:17.719Z,96.30
2022-12-29T07:14:49.654Z,96.30
2022-12-29T07:15:21.545Z,96.60
2022-12-29T07:15:53.435Z,96.50
2022-12-29T07:16:25.412Z,96.30
2022-12-29T07:16:57.404Z,96.30
2022-12-29T07:17:29.370Z,96.30
2022-12-29T07:18:01.556Z,96.30
2022-12-29T07:18:33.376Z,96.30
2022-12-29T07:19:05.226Z,96.40
2022-12-29T07:19:37.086Z,96.10
2022-12-29T07:20:10.229Z,96.50
2022-12-29T07:20:42.019Z,96.30
2022-12-29T07:21:13.800Z,96.30
2022-12-29T07:21:45.676Z,96.40
2022-12-29T07:22:17.500Z,96.40
2022-12-29T07:22:49.313Z,96.40
2022-12-29T07:23:21.128Z,96.30
2022-12-29T07:23:52.878Z,96.10
2022-12-29T07:24:26.549Z,96.40
2022-12-29T07:24:58.353Z,96.40
2022-12-29T07:25:30.524Z,96.30
2022-12-29T07:26:03.955Z,96.50
2022-12-29T07:26:37.198Z,96.40
2022-12-29T07:27:08.959Z,96.30
2022-12-29T07:27:40.748Z,96.30
2022-12-29T07:28:12.605Z,96.30
2022-12-29T07:28:44.661Z,96.30
2022-12-29T07:29:16.499Z,96.30
2022-12-29T07:29:48.315Z,96.30
2022-12-29T07:30:20.286Z,96.30
2022-12-29T07:30:52.065Z,96.30
2022-12-29T07:31:24.489Z,96.30
2022-12-29T07:31:56.374Z,96.50
2022-12-29T07:32:28.219Z,96.00
2022-12-29T07:33:00.023Z,96.30
2022-12-29T07:33:32.123Z,96.30
2022-12-29T07:34:03.866Z,96.20
2022-12-29T07:34:35.684Z,96.30
2022-12-29T07:35:08.010Z,96.00
2022-12-29T07:35:39.784Z,96.20
2022-12-29T07:36:12.718Z,96.20
2022-12-29T07:36:44.486Z,96.20
2022-12-29T07:37:17.272Z,96.20
2022-12-29T07:37:49.326Z,96.30
2022-12-29T07:38:21.326Z,96.00
2022-12-29T07:38:53.142Z,96.60
2022-12-29T07:39:25.005Z,96.20
2022-12-29T07:39:56.843Z,96.20
2022-12-29T07:40:28.751Z,96.20
2022-12-29T07:41:00.609Z,95.50
2022-12-29T07:41:32.398Z,96.50
2022-12-29T07:42:07.221Z,96.00
2022-12-29T07:42:48.152Z,96.30
2022-12-29T07:43:21.708Z,96.30
2022-12-29T07:44:10.076Z,96.00
2022-12-29T07:45:04.829Z,96.20
2022-12-29T07:45:41.394Z,96.20
2022-12-29T07:46:54.265Z,96.20
2022-12-29T07:47:08.345Z,96.20
2022-12-29T07:47:40.120Z,96.20
2022-12-29T07:48:12.356Z,96.00
2022-12-29T07:48:44.427Z,96.40
2022-12-29T07:49:16.173Z,96.00
2022-12-29T07:49:48.213Z,96.50
2022-12-29T07:50:20.062Z,96.00
2022-12-29T07:50:52.678Z,95.90
2022-12-29T07:51:24.489Z,96.20
2022-12-29T07:51:56.317Z,96.20
2022-12-29T07:52:28.165Z,96.20
2022-12-29T07:52:59.907Z,96.50
2022-12-29T07:53:31.696Z,96.20